Time;durP1;ratioP1;P1;durP2;ratioP2;P2;SDS_P1;SDS_P2;PMS_P1;PMS_P2;Temp;Humidity;BMP_temperature;BMP_pressure;BME280_temperature;BME280_humidity;BME280_pressure;Samples;Min_cycle;Max_cycle;Signal;HPM_P1;HPM_P2
2023/04/23 00:01:54;;;;;;;12.82;7.78;;;;;;;;;;5136419;27;20101;-71
2023/04/23 00:04:47;;;;;;;11.48;7.30;;;;;;;;;;5136699;27;20106;-70
2023/04/23 00:07:33;;;;;;;13.48;7.88;;;;;;;;;;5135983;27;20051;-71
2023/04/23 00:10:18;;;;;;;15.43;7.78;;;;;;;;;;5120113;27;20027;-71
2023/04/23 00:13:04;;;;;;;17.25;8.70;;;;;;;;;;5133729;27;20015;-70
2023/04/23 00:15:50;;;;;;;15.70;8.80;;;;;;;;;;5134019;27;20019;-71
2023/04/23 00:18:36;;;;;;;17.52;9.68;;;;;;;;;;5133849;27;20029;-70
2023/04/23 00:21:22;;;;;;;15.13;9.75;;;;;;;;;;5133726;27;20023;-70
2023/04/23 00:24:07;;;;;;;15.82;11.00;;;;;;;;;;5134051;27;20045;-70
2023/04/23 00:26:53;;;;;;;15.63;10.88;;;;;;;;;;5134909;27;20019;-69
2023/04/23 00:29:39;;;;;;;17.02;11.40;;;;;;;;;;5134773;27;20051;-69
2023/04/23 00:32:25;;;;;;;17.52;11.85;;;;;;;;;;5134999;27;20026;-71
2023/04/23 00:35:10;;;;;;;27.73;12.30;;;;;;;;;;5135412;27;20586;-71
2023/04/23 00:37:56;;;;;;;21.70;12.27;;;;;;;;;;5135704;28;20023;-70
2023/04/23 00:40:41;;;;;;;20.75;11.68;;;;;;;;;;5136081;28;20015;-71
2023/04/23 00:43:27;;;;;;;23.02;13.15;;;;;;;;;;5135244;28;20443;-71
2023/04/23 00:46:13;;;;;;;20.55;12.40;;;;;;;;;;5133981;28;20058;-70
2023/04/23 00:48:58;;;;;;;22.98;13.68;;;;;;;;;;5134833;28;20043;-70
2023/04/23 00:51:44;;;;;;;24.33;13.07;;;;;;;;;;5118627;28;20011;-71
2023/04/23 00:54:30;;;;;;;19.48;12.25;;;;;;;;;;5134585;28;20031;-70
2023/04/23 00:57:16;;;;;;;19.30;11.55;;;;;;;;;;5135580;28;20539;-71
2023/04/23 01:00:02;;;;;;;17.73;10.63;;;;;;;;;;5133993;28;20027;-71
2023/04/23 01:02:49;;;;;;;19.42;11.18;;;;;;;;;;5119815;28;20397;-70
2023/04/23 01:05:34;;;;;;;15.82;9.90;;;;;;;;;;5134643;28;20038;-69
2023/04/23 01:08:22;;;;;;;19.83;10.23;;;;;;;;;;5133675;28;20510;-70
2023/04/23 01:11:07;;;;;;;17.63;10.02;;;;;;;;;;5133447;28;20051;-70
2023/04/23 01:13:55;;;;;;;21.42;11.05;;;;;;;;;;5120162;28;20015;-70
2023/04/23 01:16:41;;;;;;;15.48;10.27;;;;;;;;;;5134881;28;20027;-70
2023/04/23 01:19:27;;;;;;;14.45;9.25;;;;;;;;;;5134925;28;20043;-70
2023/04/23 01:22:14;;;;;;;15.25;8.95;;;;;;;;;;5133859;28;20019;-70
2023/04/23 01:25:00;;;;;;;12.20;8.43;;;;;;;;;;5134299;28;20052;-70
2023/04/23 01:27:45;;;;;;;13.40;9.05;;;;;;;;;;5133788;28;20015;-70
2023/04/23 01:30:32;;;;;;;14.52;7.90;;;;;;;;;;5133777;28;20348;-69
2023/04/23 01:33:18;;;;;;;13.65;7.65;;;;;;;;;;5135414;27;20015;-69
2023/04/23 01:36:03;;;;;;;11.70;8.05;;;;;;;;;;5138251;27;20061;-69
2023/04/23 01:38:50;;;;;;;10.38;7.20;;;;;;;;;;5137828;27;20015;-68
2023/04/23 01:41:35;;;;;;;13.75;7.65;;;;;;;;;;5137628;27;20019;-69
2023/04/23 01:44:24;;;;;;;11.88;7.90;;;;;;;;;;5137189;27;20026;-70
2023/04/23 01:47:10;;;;;;;17.42;7.50;;;;;;;;;;5136919;27;20023;-70
2023/04/23 01:49:56;;;;;;;11.30;7.72;;;;;;;;;;5138411;27;20091;-70
2023/04/23 01:52:43;;;;;;;10.02;7.47;;;;;;;;;;5137708;27;20019;-70
2023/04/23 01:55:29;;;;;;;17.42;8.27;;;;;;;;;;5137027;27;20421;-71
2023/04/23 01:58:15;;;;;;;14.07;7.78;;;;;;;;;;5138393;27;20023;-70
2023/04/23 02:01:00;;;;;;;13.68;7.78;;;;;;;;;;5137027;27;20015;-69
2023/04/23 02:03:48;;;;;;;10.80;7.75;;;;;;;;;;5136762;27;20451;-70
2023/04/23 02:06:33;;;;;;;16.02;7.63;;;;;;;;;;5136916;27;20088;-69
2023/04/23 02:09:20;;;;;;;11.85;8.10;;;;;;;;;;5137171;27;20431;-70
2023/04/23 02:12:05;;;;;;;14.68;8.55;;;;;;;;;;5137532;27;20023;-70
2023/04/23 02:14:52;;;;;;;16.45;8.38;;;;;;;;;;5136668;27;20072;-69
2023/04/23 02:17:38;;;;;;;18.77;8.55;;;;;;;;;;5137425;27;20034;-69
2023/04/23 02:20:24;;;;;;;14.77;8.52;;;;;;;;;;5122609;27;20015;-68
2023/04/23 02:23:10;;;;;;;13.70;8.32;;;;;;;;;;5136745;27;20096;-70
2023/04/23 02:25:56;;;;;;;13.02;8.65;;;;;;;;;;5136657;27;20113;-69
2023/04/23 02:28:42;;;;;;;15.30;8.70;;;;;;;;;;5136464;27;20008;-69
2023/04/23 02:31:27;;;;;;;14.90;8.88;;;;;;;;;;5136640;27;20406;-69
2023/04/23 02:34:13;;;;;;;12.65;8.98;;;;;;;;;;5136422;27;20041;-69
2023/04/23 02:36:58;;;;;;;16.73;9.00;;;;;;;;;;5135924;27;20049;-70
2023/04/23 02:39:44;;;;;;;15.13;8.50;;;;;;;;;;5136754;27;20023;-70
2023/04/23 02:42:30;;;;;;;14.02;8.48;;;;;;;;;;5135865;27;20022;-70
2023/04/23 02:45:15;;;;;;;13.73;8.20;;;;;;;;;;5135322;27;20362;-70
2023/04/23 02:48:01;;;;;;;14.00;8.95;;;;;;;;;;5136622;27;20443;-70
2023/04/23 02:50:47;;;;;;;12.45;8.13;;;;;;;;;;5137181;27;20033;-70
2023/04/23 02:53:32;;;;;;;13.10;8.50;;;;;;;;;;5136034;27;20026;-70
2023/04/23 02:56:18;;;;;;;16.73;8.00;;;;;;;;;;5136922;27;20324;-70
2023/04/23 02:59:04;;;;;;;14.23;9.50;;;;;;;;;;5135746;27;20443;-70
2023/04/23 03:01:50;;;;;;;16.48;8.60;;;;;;;;;;5135889;27;20448;-70
2023/04/23 03:04:36;;;;;;;13.57;9.02;;;;;;;;;;5122046;27;20375;-70
2023/04/23 03:07:21;;;;;;;13.98;8.63;;;;;;;;;;5135259;27;20455;-69
2023/04/23 03:10:07;;;;;;;16.05;8.93;;;;;;;;;;5136155;27;20064;-70
2023/04/23 03:12:53;;;;;;;19.00;9.32;;;;;;;;;;5135330;27;20015;-70
2023/04/23 03:15:39;;;;;;;16.25;8.85;;;;;;;;;;5135502;27;20440;-69
2023/04/23 03:18:24;;;;;;;16.27;8.73;;;;;;;;;;5128430;27;20027;-69
2023/04/23 03:21:10;;;;;;;18.58;9.63;;;;;;;;;;5139107;27;20034;-69
2023/04/23 03:23:56;;;;;;;18.50;8.98;;;;;;;;;;5136549;27;20097;-70
2023/04/23 03:26:41;;;;;;;17.50;9.43;;;;;;;;;;5135426;27;20019;-70
2023/04/23 03:29:27;;;;;;;20.30;9.70;;;;;;;;;;5135960;27;20454;-70
2023/04/23 03:32:12;;;;;;;20.55;10.38;;;;;;;;;;5140019;27;20458;-70
2023/04/23 03:34:58;;;;;;;16.20;9.57;;;;;;;;;;5150280;27;20030;-69
2023/04/23 03:37:44;;;;;;;26.00;9.82;;;;;;;;;;5137741;27;20020;-70
2023/04/23 03:40:29;;;;;;;17.08;9.27;;;;;;;;;;5135412;27;20027;-70
2023/04/23 03:43:15;;;;;;;17.73;8.95;;;;;;;;;;5135634;27;20023;-69
2023/04/23 03:46:01;;;;;;;19.08;9.60;;;;;;;;;;5134852;27;20080;-70
2023/04/23 03:48:46;;;;;;;21.67;9.88;;;;;;;;;;5120482;27;20027;-70
2023/04/23 03:51:32;;;;;;;21.00;10.48;;;;;;;;;;5135072;27;20075;-70
2023/04/23 03:54:18;;;;;;;19.35;9.52;;;;;;;;;;5136227;27;20023;-70
2023/04/23 03:57:03;;;;;;;19.80;9.52;;;;;;;;;;5134690;27;20392;-70
2023/04/23 03:59:49;;;;;;;16.08;9.13;;;;;;;;;;5135809;27;20033;-69
2023/04/23 04:02:35;;;;;;;17.50;8.70;;;;;;;;;;5120524;27;20027;-69
2023/04/23 04:05:21;;;;;;;17.58;8.93;;;;;;;;;;5135275;27;20030;-70
2023/04/23 04:08:07;;;;;;;16.90;9.07;;;;;;;;;;5119980;27;20455;-69
2023/04/23 04:10:53;;;;;;;17.52;9.18;;;;;;;;;;5134721;27;20034;-70
2023/04/23 04:13:38;;;;;;;20.05;9.27;;;;;;;;;;5135072;27;20076;-69
2023/04/23 04:16:24;;;;;;;17.52;9.30;;;;;;;;;;5134615;27;20011;-70
2023/04/23 04:19:09;;;;;;;19.73;9.60;;;;;;;;;;5134744;27;20027;-70
2023/04/23 04:21:55;;;;;;;18.35;9.55;;;;;;;;;;5120228;27;20051;-70
2023/04/23 04:24:41;;;;;;;22.17;9.90;;;;;;;;;;5120645;27;20051;-69
2023/04/23 04:27:26;;;;;;;18.15;9.20;;;;;;;;;;5134243;27;20038;-69
2023/04/23 04:30:12;;;;;;;21.20;10.02;;;;;;;;;;5134549;27;20400;-69
2023/04/23 04:32:58;;;;;;;17.58;10.20;;;;;;;;;;5119515;28;20021;-70
2023/04/23 04:35:44;;;;;;;17.75;10.25;;;;;;;;;;5133954;27;20023;-69
2023/04/23 04:38:30;;;;;;;19.55;10.73;;;;;;;;;;5134943;28;20027;-70
2023/04/23 04:41:15;;;;;;;18.67;9.55;;;;;;;;;;5134419;28;20091;-70
2023/04/23 04:44:01;;;;;;;18.73;10.05;;;;;;;;;;5119963;28;20087;-69
2023/04/23 04:46:46;;;;;;;17.67;10.55;;;;;;;;;;5134060;28;20019;-69
2023/04/23 04:49:32;;;;;;;22.38;9.95;;;;;;;;;;5119961;28;20026;-69
2023/04/23 04:52:18;;;;;;;19.02;10.23;;;;;;;;;;5134131;28;20491;-70
2023/04/23 04:55:06;;;;;;;15.43;9.45;;;;;;;;;;5134951;28;20030;-70
2023/04/23 04:57:52;;;;;;;14.52;9.18;;;;;;;;;;5134211;28;20012;-69
2023/04/23 05:00:37;;;;;;;19.00;9.38;;;;;;;;;;5133719;28;20073;-69
2023/04/23 05:03:23;;;;;;;14.93;8.90;;;;;;;;;;5133920;28;20094;-69
2023/04/23 05:06:08;;;;;;;19.23;9.68;;;;;;;;;;5133899;28;20435;-70
2023/04/23 05:08:54;;;;;;;21.98;9.85;;;;;;;;;;5136796;27;20031;-70
2023/04/23 05:11:40;;;;;;;21.52;9.50;;;;;;;;;;5124249;27;20034;-69
2023/04/23 05:14:26;;;;;;;14.85;8.68;;;;;;;;;;5123220;27;20027;-70
2023/04/23 05:17:12;;;;;;;19.77;9.10;;;;;;;;;;5137959;27;20102;-70
2023/04/23 05:19:57;;;;;;;17.15;9.30;;;;;;;;;;5137825;27;20035;-70
2023/04/23 05:22:43;;;;;;;16.30;9.23;;;;;;;;;;5137887;27;20019;-70
2023/04/23 05:25:29;;;;;;;15.27;9.10;;;;;;;;;;5138385;27;20079;-69
2023/04/23 05:28:15;;;;;;;15.13;8.68;;;;;;;;;;5138933;27;20031;-70
2023/04/23 05:31:01;;;;;;;13.60;8.52;;;;;;;;;;5137906;27;20423;-71
2023/04/23 05:33:46;;;;;;;11.43;7.10;;;;;;;;;;5137478;27;20447;-71
2023/04/23 05:36:32;;;;;;;12.23;6.72;;;;;;;;;;5137977;27;20023;-70
2023/04/23 05:39:18;;;;;;;14.48;7.20;;;;;;;;;;5137263;27;20458;-69
2023/04/23 05:42:03;;;;;;;12.20;7.60;;;;;;;;;;5137491;27;20055;-70
2023/04/23 05:44:49;;;;;;;10.15;6.10;;;;;;;;;;5137233;27;20019;-71
2023/04/23 05:47:35;;;;;;;14.25;5.97;;;;;;;;;;5137433;27;20022;-70
2023/04/23 05:50:21;;;;;;;11.70;5.75;;;;;;;;;;5137462;27;20035;-70
2023/04/23 05:53:06;;;;;;;9.82;5.70;;;;;;;;;;5122505;27;20029;-70
2023/04/23 05:55:52;;;;;;;11.98;6.57;;;;;;;;;;5137403;27;20397;-70
2023/04/23 05:58:37;;;;;;;11.55;5.80;;;;;;;;;;5123035;27;20033;-69
2023/04/23 06:01:23;;;;;;;15.40;6.22;;;;;;;;;;5137156;27;20023;-69
2023/04/23 06:04:09;;;;;;;13.07;6.72;;;;;;;;;;5136971;27;20094;-69
2023/04/23 06:06:54;;;;;;;10.20;6.07;;;;;;;;;;5137075;27;20116;-70
2023/04/23 06:09:40;;;;;;;13.25;6.30;;;;;;;;;;5136810;27;20474;-70
2023/04/23 06:12:26;;;;;;;9.63;5.65;;;;;;;;;;5137004;27;20015;-70
2023/04/23 06:15:11;;;;;;;12.80;5.85;;;;;;;;;;5123405;27;20023;-70
2023/04/23 06:17:57;;;;;;;12.95;6.20;;;;;;;;;;5136420;27;20018;-69
2023/04/23 06:20:43;;;;;;;11.95;6.10;;;;;;;;;;5135355;27;20153;-70
2023/04/23 06:23:30;;;;;;;12.10;6.50;;;;;;;;;;5137096;27;20023;-70
2023/04/23 06:26:15;;;;;;;11.73;5.90;;;;;;;;;;5136112;27;20046;-70
2023/04/23 06:29:01;;;;;;;16.73;6.03;;;;;;;;;;5122423;27;20015;-69
2023/04/23 06:31:47;;;;;;;13.80;6.25;;;;;;;;;;5136731;27;20076;-70
2023/04/23 06:34:32;;;;;;;11.10;6.13;;;;;;;;;;5136554;27;20011;-69
2023/04/23 06:37:18;;;;;;;10.50;6.55;;;;;;;;;;5136703;27;20019;-70
2023/04/23 06:40:04;;;;;;;10.18;6.40;;;;;;;;;;5136324;27;20019;-70
2023/04/23 06:42:49;;;;;;;14.05;6.30;;;;;;;;;;5136329;27;20024;-70
2023/04/23 06:45:35;;;;;;;20.33;11.60;;;;;;;;;;5136456;27;20063;-70
2023/04/23 06:48:21;;;;;;;18.15;9.15;;;;;;;;;;5136045;27;20023;-70
2023/04/23 06:51:06;;;;;;;9.98;7.03;;;;;;;;;;5135972;27;20337;-70
2023/04/23 06:53:52;;;;;;;15.43;6.88;;;;;;;;;;5137042;27;20019;-70
2023/04/23 06:56:38;;;;;;;12.75;6.60;;;;;;;;;;5136236;27;20427;-69
2023/04/23 06:59:23;;;;;;;11.32;6.30;;;;;;;;;;5135772;27;20027;-69
2023/04/23 07:02:09;;;;;;;9.40;6.35;;;;;;;;;;5136336;27;20435;-70
2023/04/23 07:04:55;;;;;;;12.88;6.90;;;;;;;;;;5135681;27;20022;-70
2023/04/23 07:07:42;;;;;;;10.10;5.65;;;;;;;;;;5121131;27;20049;-69
2023/04/23 07:10:27;;;;;;;11.75;5.90;;;;;;;;;;5135923;27;20090;-70
2023/04/23 07:13:13;;;;;;;11.10;6.35;;;;;;;;;;5135912;27;20023;-70
2023/04/23 07:15:58;;;;;;;8.65;5.38;;;;;;;;;;5135739;27;20038;-70
2023/04/23 07:18:44;;;;;;;12.45;6.10;;;;;;;;;;5135162;27;20030;-70
2023/04/23 07:21:31;;;;;;;9.23;5.28;;;;;;;;;;5135939;27;20115;-70
2023/04/23 07:24:17;;;;;;;11.63;4.80;;;;;;;;;;5154186;27;20030;-70
2023/04/23 07:27:02;;;;;;;9.82;4.88;;;;;;;;;;5142315;27;20044;-70
2023/04/23 07:29:48;;;;;;;9.82;4.00;;;;;;;;;;5135924;27;20328;-70
2023/04/23 07:32:34;;;;;;;6.18;4.30;;;;;;;;;;5142734;27;20094;-70
2023/04/23 07:35:19;;;;;;;12.57;4.38;;;;;;;;;;5138969;27;20351;-70
2023/04/23 07:38:05;;;;;;;11.07;4.55;;;;;;;;;;5134966;27;20439;-70
2023/04/23 07:40:51;;;;;;;7.03;4.13;;;;;;;;;;5135238;27;20303;-70
2023/04/23 07:43:37;;;;;;;8.90;4.50;;;;;;;;;;5134923;27;20031;-70
2023/04/23 07:46:22;;;;;;;9.20;4.55;;;;;;;;;;5135067;27;20023;-69
2023/04/23 07:49:08;;;;;;;11.65;4.63;;;;;;;;;;5136253;27;20075;-70
2023/04/23 07:51:53;;;;;;;9.75;4.68;;;;;;;;;;5121965;27;20023;-70
2023/04/23 07:54:39;;;;;;;10.25;4.80;;;;;;;;;;5123301;27;20114;-70
2023/04/23 07:57:25;;;;;;;7.97;4.28;;;;;;;;;;5144422;27;20023;-70
2023/04/23 08:00:11;;;;;;;8.10;4.70;;;;;;;;;;5138950;27;20054;-70
2023/04/23 08:02:57;;;;;;;8.60;4.30;;;;;;;;;;5139303;27;20049;-70
2023/04/23 08:05:42;;;;;;;10.05;4.53;;;;;;;;;;5132091;27;20030;-70
2023/04/23 08:08:28;;;;;;;8.93;4.70;;;;;;;;;;5134272;27;20039;-70
2023/04/23 08:11:14;;;;;;;11.35;5.07;;;;;;;;;;5137502;27;20023;-70
2023/04/23 08:14:00;;;;;;;10.52;4.40;;;;;;;;;;5135077;27;20034;-70
2023/04/23 08:16:46;;;;;;;9.82;4.50;;;;;;;;;;5134655;27;20027;-70
2023/04/23 08:19:32;;;;;;;7.50;4.10;;;;;;;;;;5135578;27;20011;-69
2023/04/23 08:22:18;;;;;;;11.65;4.20;;;;;;;;;;5120700;27;20031;-70
2023/04/23 08:25:03;;;;;;;6.35;3.92;;;;;;;;;;5134192;27;20098;-70
2023/04/23 08:27:49;;;;;;;10.68;4.30;;;;;;;;;;5134671;27;20114;-70
2023/04/23 08:30:35;;;;;;;8.65;4.32;;;;;;;;;;5134282;27;20023;-70
2023/04/23 08:33:21;;;;;;;8.15;4.20;;;;;;;;;;5134004;27;20042;-70
2023/04/23 08:36:07;;;;;;;6.60;4.40;;;;;;;;;;5133764;27;20465;-70
2023/04/23 08:38:52;;;;;;;6.40;4.82;;;;;;;;;;5121034;28;20027;-70
2023/04/23 08:41:42;;;;;;;9.05;4.25;;;;;;;;;;5134190;27;20061;-69
2023/04/23 08:44:28;;;;;;;15.50;4.82;;;;;;;;;;5119644;28;20019;-71
2023/04/23 08:47:16;;;;;;;8.10;4.25;;;;;;;;;;5135405;28;20023;-70
2023/04/23 08:50:03;;;;;;;8.77;4.20;;;;;;;;;;5133615;28;20007;-70
2023/04/23 08:52:51;;;;;;;10.07;4.30;;;;;;;;;;5134562;28;20106;-70
2023/04/23 08:55:37;;;;;;;9.38;4.45;;;;;;;;;;5119570;28;20118;-70
2023/04/23 08:58:22;;;;;;;5.70;4.05;;;;;;;;;;5133701;28;20030;-70
2023/04/23 09:01:08;;;;;;;9.80;4.43;;;;;;;;;;5119534;28;20033;-69
2023/04/23 09:03:54;;;;;;;14.93;4.88;;;;;;;;;;5120154;28;20042;-71
2023/04/23 09:06:40;;;;;;;13.77;4.80;;;;;;;;;;5133721;28;20023;-70
2023/04/23 09:12:31;;;;;;;8.35;3.75;;;;;;;;;;5122431;28;20011;-70
2023/04/23 09:15:17;;;;;;;9.88;3.92;;;;;;;;;;5133904;28;20019;-69
2023/04/23 09:18:03;;;;;;;8.98;4.60;;;;;;;;;;5119332;28;20029;-71
2023/04/23 09:20:49;;;;;;;10.00;4.25;;;;;;;;;;5134396;28;20038;-69
2023/04/23 09:23:37;;;;;;;7.90;4.30;;;;;;;;;;5119939;28;20034;-70
2023/04/23 09:26:23;;;;;;;9.63;4.55;;;;;;;;;;5133656;28;20042;-70
2023/04/23 09:29:12;;;;;;;7.40;4.28;;;;;;;;;;5134066;28;20410;-70
2023/04/23 09:32:08;;;;;;;8.13;4.63;;;;;;;;;;5133481;28;20057;-69
2023/04/23 09:34:55;;;;;;;9.43;4.07;;;;;;;;;;5134764;28;20022;-70
2023/04/23 09:37:48;;;;;;;8.88;4.68;;;;;;;;;;5118107;28;20023;-70
2023/04/23 09:40:33;;;;;;;10.38;4.60;;;;;;;;;;5108624;28;20027;-69
2023/04/23 09:43:19;;;;;;;10.70;4.97;;;;;;;;;;5105226;28;20011;-70
2023/04/23 09:46:04;;;;;;;10.05;5.05;;;;;;;;;;5131608;28;20023;-70
2023/04/23 09:48:51;;;;;;;8.00;4.40;;;;;;;;;;5132748;28;20023;-70
2023/04/23 09:51:39;;;;;;;7.93;4.30;;;;;;;;;;5132714;28;20046;-70
2023/04/23 09:54:25;;;;;;;7.22;4.10;;;;;;;;;;5134560;27;20018;-70
2023/04/23 09:57:11;;;;;;;9.18;4.70;;;;;;;;;;5133210;27;20019;-70
2023/04/23 10:00:10;;;;;;;11.70;5.15;;;;;;;;;;5135328;27;20046;-70
2023/04/23 10:02:58;;;;;;;8.65;4.75;;;;;;;;;;5136325;27;20034;-70
2023/04/23 10:05:45;;;;;;;10.40;4.95;;;;;;;;;;5121487;27;20033;-69
2023/04/23 10:08:30;;;;;;;7.82;4.05;;;;;;;;;;5128745;27;20043;-71
2023/04/23 10:11:16;;;;;;;8.18;4.38;;;;;;;;;;5127384;27;20565;-71
2023/04/23 10:14:02;;;;;;;16.27;4.60;;;;;;;;;;5135473;27;20023;-70
2023/04/23 10:16:50;;;;;;;5.63;4.13;;;;;;;;;;5136708;27;20019;-70
2023/04/23 10:19:36;;;;;;;8.00;4.53;;;;;;;;;;5137321;27;20363;-70
2023/04/23 10:22:24;;;;;;;10.23;4.45;;;;;;;;;;5130154;27;20054;-69
2023/04/23 10:25:10;;;;;;;6.88;4.38;;;;;;;;;;5121712;27;20022;-71
2023/04/23 10:27:57;;;;;;;6.50;4.68;;;;;;;;;;5136557;27;20042;-71
2023/04/23 10:30:43;;;;;;;9.50;4.82;;;;;;;;;;5117713;27;20012;-70
2023/04/23 10:33:30;;;;;;;7.40;4.60;;;;;;;;;;5128511;27;20018;-69
2023/04/23 10:36:16;;;;;;;8.00;4.63;;;;;;;;;;5137212;27;20046;-71
2023/04/23 10:39:06;;;;;;;9.23;4.80;;;;;;;;;;5135397;27;20015;-71
2023/04/23 10:41:53;;;;;;;6.28;4.45;;;;;;;;;;5135119;27;20035;-71
2023/04/23 10:44:40;;;;;;;10.13;4.72;;;;;;;;;;5135908;27;20031;-71
2023/04/23 10:47:26;;;;;;;6.93;4.55;;;;;;;;;;5136230;27;20099;-70
2023/04/23 10:50:18;;;;;;;9.77;4.95;;;;;;;;;;5141950;27;20015;-70
2023/04/23 10:53:04;;;;;;;11.13;4.72;;;;;;;;;;5131836;27;20047;-70
2023/04/23 10:55:50;;;;;;;8.48;4.80;;;;;;;;;;5135906;27;20019;-70
2023/04/23 10:58:46;;;;;;;17.50;5.18;;;;;;;;;;5121152;27;20023;-70
2023/04/23 11:01:32;;;;;;;11.20;4.93;;;;;;;;;;5130178;27;20332;-70
2023/04/23 11:04:28;;;;;;;12.05;5.07;;;;;;;;;;5135094;27;20031;-70
2023/04/23 11:07:13;;;;;;;16.92;7.20;;;;;;;;;;5099860;28;20075;-70
2023/04/23 11:10:00;;;;;;;7.43;4.50;;;;;;;;;;5115011;27;20019;-69
2023/04/23 11:12:45;;;;;;;10.60;4.68;;;;;;;;;;5132202;27;20012;-70
2023/04/23 11:15:31;;;;;;;9.93;4.85;;;;;;;;;;5135155;27;20043;-69
2023/04/23 11:18:16;;;;;;;7.93;4.63;;;;;;;;;;5119823;27;20023;-70
2023/04/23 11:21:03;;;;;;;8.40;5.60;;;;;;;;;;5135278;27;20030;-69
2023/04/23 11:23:48;;;;;;;7.10;4.40;;;;;;;;;;5137502;27;20012;-69
2023/04/23 11:26:35;;;;;;;7.85;4.43;;;;;;;;;;5137505;27;20475;-69
2023/04/23 11:29:24;;;;;;;12.50;4.57;;;;;;;;;;5138835;27;20026;-69
2023/04/23 11:32:11;;;;;;;5.38;4.05;;;;;;;;;;5142895;27;20023;-70
2023/04/23 11:34:59;;;;;;;11.93;4.53;;;;;;;;;;5141212;27;20071;-70
2023/04/23 11:37:45;;;;;;;10.45;4.70;;;;;;;;;;5135343;27;20088;-69
2023/04/23 11:40:31;;;;;;;6.65;4.13;;;;;;;;;;5121243;27;20460;-70
2023/04/23 11:43:17;;;;;;;14.45;4.75;;;;;;;;;;5137686;27;20031;-70
2023/04/23 11:46:03;;;;;;;11.98;4.95;;;;;;;;;;5138228;27;20019;-68
2023/04/23 11:48:49;;;;;;;9.95;4.30;;;;;;;;;;5148582;27;20082;-70
2023/04/23 11:51:40;;;;;;;13.48;4.38;;;;;;;;;;5136789;27;20451;-71
2023/04/23 11:54:27;;;;;;;10.63;4.63;;;;;;;;;;5134991;27;20443;-70
2023/04/23 11:57:13;;;;;;;13.27;4.60;;;;;;;;;;5120898;27;20039;-70
2023/04/23 11:59:59;;;;;;;6.10;4.22;;;;;;;;;;5133817;27;20034;-69
2023/04/23 12:02:50;;;;;;;7.53;4.40;;;;;;;;;;5134911;27;20019;-70
2023/04/23 12:05:41;;;;;;;7.38;4.15;;;;;;;;;;5134205;27;20020;-68
2023/04/23 12:08:31;;;;;;;10.07;4.28;;;;;;;;;;5134006;27;20376;-70
2023/04/23 12:11:16;;;;;;;7.55;4.47;;;;;;;;;;5134878;27;20106;-71
2023/04/23 12:14:02;;;;;;;8.13;4.30;;;;;;;;;;5118998;27;20023;-70
2023/04/23 12:16:51;;;;;;;9.82;4.28;;;;;;;;;;5134836;27;20098;-70
2023/04/23 12:19:37;;;;;;;8.38;4.57;;;;;;;;;;5099063;28;20027;-69
2023/04/23 12:22:26;;;;;;;8.00;4.30;;;;;;;;;;5116239;28;20019;-69
2023/04/23 12:25:12;;;;;;;8.00;4.07;;;;;;;;;;5118228;27;20454;-70
2023/04/23 12:27:59;;;;;;;11.82;4.68;;;;;;;;;;5134506;27;20023;-70
2023/04/23 12:30:44;;;;;;;8.02;4.30;;;;;;;;;;5133487;27;20025;-70
2023/04/23 12:33:30;;;;;;;8.70;3.97;;;;;;;;;;5133805;27;20029;-70
2023/04/23 12:36:16;;;;;;;6.22;3.70;;;;;;;;;;5134246;27;20023;-70
2023/04/23 12:39:23;;;;;;;8.00;4.20;;;;;;;;;;5133954;27;20102;-70
2023/04/23 12:42:09;;;;;;;9.38;4.43;;;;;;;;;;5133365;28;20030;-70
2023/04/23 12:45:03;;;;;;;7.40;4.18;;;;;;;;;;5133439;28;20104;-69
2023/04/23 12:47:49;;;;;;;5.35;3.78;;;;;;;;;;5118553;28;20023;-70
2023/04/23 12:50:36;;;;;;;8.38;4.05;;;;;;;;;;5120055;28;20023;-71
2023/04/23 12:53:22;;;;;;;8.50;4.40;;;;;;;;;;5119963;28;20015;-70
2023/04/23 12:56:07;;;;;;;9.43;3.88;;;;;;;;;;5133271;28;20026;-71
2023/04/23 12:58:53;;;;;;;6.90;3.85;;;;;;;;;;5133384;28;20128;-70
2023/04/23 13:01:38;;;;;;;9.05;3.70;;;;;;;;;;5133348;28;20019;-70
2023/04/23 13:04:24;;;;;;;7.13;3.97;;;;;;;;;;5120144;28;20019;-70
2023/04/23 13:07:09;;;;;;;10.73;4.10;;;;;;;;;;5133234;28;20190;-69
2023/04/23 13:09:56;;;;;;;7.05;3.92;;;;;;;;;;5133429;28;20038;-70
2023/04/23 13:12:42;;;;;;;5.20;3.95;;;;;;;;;;5133420;28;20030;-70
2023/04/23 13:15:27;;;;;;;8.30;3.88;;;;;;;;;;5134225;28;20027;-71
2023/04/23 13:18:13;;;;;;;7.47;4.18;;;;;;;;;;5133722;28;20119;-74
2023/04/23 13:20:58;;;;;;;5.03;3.40;;;;;;;;;;5120588;28;20346;-72
2023/04/23 13:23:44;;;;;;;9.38;3.92;;;;;;;;;;5133344;28;20414;-70
2023/04/23 13:26:31;;;;;;;6.75;3.72;;;;;;;;;;5133285;28;20062;-70
2023/04/23 13:29:17;;;;;;;6.25;3.70;;;;;;;;;;5135977;27;20173;-69
2023/04/23 13:32:02;;;;;;;5.13;3.70;;;;;;;;;;5137559;27;20019;-68
2023/04/23 13:34:48;;;;;;;8.13;4.57;;;;;;;;;;5122728;27;20094;-69
2023/04/23 13:37:33;;;;;;;9.27;3.90;;;;;;;;;;5136865;27;20038;-68
2023/04/23 13:40:19;;;;;;;13.18;4.18;;;;;;;;;;5123530;27;20050;-69
2023/04/23 13:43:05;;;;;;;7.03;4.25;;;;;;;;;;5136743;27;20439;-69
2023/04/23 13:45:51;;;;;;;6.93;4.50;;;;;;;;;;5136607;27;20023;-70
2023/04/23 13:48:37;;;;;;;6.85;3.47;;;;;;;;;;5122859;27;20506;-68
2023/04/23 13:51:22;;;;;;;7.55;3.67;;;;;;;;;;5137235;27;20023;-69
2023/04/23 13:54:08;;;;;;;8.30;3.60;;;;;;;;;;5137049;27;20087;-70
2023/04/23 13:56:54;;;;;;;13.02;4.25;;;;;;;;;;5123337;27;20447;-71
2023/04/23 13:59:40;;;;;;;8.23;4.05;;;;;;;;;;5137211;27;20027;-70
2023/04/23 14:02:25;;;;;;;10.32;4.90;;;;;;;;;;5136344;27;20439;-70
2023/04/23 14:05:11;;;;;;;7.72;3.97;;;;;;;;;;5137205;27;20066;-69
2023/04/23 14:07:56;;;;;;;7.30;3.63;;;;;;;;;;5136328;27;20100;-69
2023/04/23 14:10:42;;;;;;;8.38;4.07;;;;;;;;;;5136234;27;20023;-69
2023/04/23 14:13:29;;;;;;;8.57;4.43;;;;;;;;;;5136009;27;20521;-68
2023/04/23 14:16:16;;;;;;;8.98;4.28;;;;;;;;;;5136958;27;20397;-69
2023/04/23 14:19:01;;;;;;;7.47;4.18;;;;;;;;;;5135802;27;20038;-69
2023/04/23 14:21:47;;;;;;;9.05;4.70;;;;;;;;;;5135640;27;20031;-69
2023/04/23 14:24:34;;;;;;;8.32;3.80;;;;;;;;;;5135906;27;20520;-69
2023/04/23 14:27:20;;;;;;;10.35;3.70;;;;;;;;;;5136258;27;20023;-71
2023/04/23 14:30:12;;;;;;;9.35;3.75;;;;;;;;;;5135672;27;20089;-71
2023/04/23 14:32:58;;;;;;;9.18;4.07;;;;;;;;;;5136140;27;20034;-71
2023/04/23 14:35:43;;;;;;;9.57;4.55;;;;;;;;;;5136291;27;20015;-71
2023/04/23 14:38:29;;;;;;;7.38;4.10;;;;;;;;;;5135603;27;20454;-70
2023/04/23 14:41:14;;;;;;;6.75;3.78;;;;;;;;;;5134125;27;20390;-69
2023/04/23 14:44:00;;;;;;;7.53;4.05;;;;;;;;;;5100907;28;20032;-70
2023/04/23 14:46:48;;;;;;;7.70;3.85;;;;;;;;;;5115592;28;20110;-70
2023/04/23 14:49:34;;;;;;;9.77;4.40;;;;;;;;;;5122867;27;20095;-71
2023/04/23 14:52:19;;;;;;;23.38;8.88;;;;;;;;;;5134748;27;20027;-71
2023/04/23 14:55:05;;;;;;;8.13;4.45;;;;;;;;;;5135140;27;20015;-71
2023/04/23 14:57:51;;;;;;;6.57;3.80;;;;;;;;;;5135248;27;20034;-71
2023/04/23 15:00:37;;;;;;;7.22;3.80;;;;;;;;;;5135194;27;20034;-71
2023/04/23 15:03:22;;;;;;;10.52;6.30;;;;;;;;;;5135242;27;20027;-70
2023/04/23 15:06:08;;;;;;;13.70;8.43;;;;;;;;;;5134839;27;20026;-70
2023/04/23 15:08:54;;;;;;;9.57;4.93;;;;;;;;;;5135382;27;20659;-71
2023/04/23 15:11:40;;;;;;;6.88;4.22;;;;;;;;;;5120979;27;20432;-71
2023/04/23 15:14:30;;;;;;;7.32;4.28;;;;;;;;;;5134659;27;20015;-72
2023/04/23 15:17:16;;;;;;;9.85;3.80;;;;;;;;;;5134739;27;20456;-71
2023/04/23 15:20:02;;;;;;;6.97;5.00;;;;;;;;;;5135447;27;20038;-71
2023/04/23 15:22:48;;;;;;;7.20;5.10;;;;;;;;;;5120805;27;20332;-71
2023/04/23 15:25:34;;;;;;;7.88;3.92;;;;;;;;;;5134661;27;20030;-70
2023/04/23 15:28:20;;;;;;;7.70;3.63;;;;;;;;;;5134824;27;20363;-72
2023/04/23 15:31:05;;;;;;;22.92;5.28;;;;;;;;;;5134601;27;20025;-71
2023/04/23 15:33:51;;;;;;;6.93;4.05;;;;;;;;;;5133780;27;20011;-71
2023/04/23 15:36:36;;;;;;;12.98;4.68;;;;;;;;;;5120138;27;20038;-71
2023/04/23 15:39:22;;;;;;;11.07;4.50;;;;;;;;;;5134450;27;20019;-70
2023/04/23 15:42:10;;;;;;;8.38;4.05;;;;;;;;;;5134540;27;20027;-70
2023/04/23 15:44:55;;;;;;;13.90;4.80;;;;;;;;;;5134060;27;20034;-71
2023/04/23 15:47:41;;;;;;;9.82;5.15;;;;;;;;;;5126414;27;20041;-71
2023/04/23 15:50:26;;;;;;;5.45;4.13;;;;;;;;;;5152272;27;20470;-72
2023/04/23 15:53:12;;;;;;;8.43;4.13;;;;;;;;;;5142017;27;20450;-71
2023/04/23 15:55:58;;;;;;;13.40;4.80;;;;;;;;;;5134276;27;20084;-70
2023/04/23 15:58:43;;;;;;;7.53;4.03;;;;;;;;;;5134197;27;20106;-71
2023/04/23 16:01:29;;;;;;;10.02;3.80;;;;;;;;;;5134247;27;20034;-70
2023/04/23 16:04:14;;;;;;;10.50;4.75;;;;;;;;;;5134642;27;20401;-70
2023/04/23 16:07:00;;;;;;;7.90;4.00;;;;;;;;;;5133182;27;20050;-70
2023/04/23 16:09:46;;;;;;;8.32;4.13;;;;;;;;;;5133687;27;20023;-70
2023/04/23 16:12:32;;;;;;;10.73;4.90;;;;;;;;;;5133770;27;20079;-69
2023/04/23 16:15:17;;;;;;;8.93;5.22;;;;;;;;;;5134916;27;20083;-70
2023/04/23 16:18:04;;;;;;;11.50;5.93;;;;;;;;;;5134352;27;20034;-72
2023/04/23 16:20:50;;;;;;;11.07;4.70;;;;;;;;;;5133718;27;20027;-71
2023/04/23 16:23:36;;;;;;;8.40;4.28;;;;;;;;;;5134158;27;20371;-71
2023/04/23 16:26:21;;;;;;;9.65;4.15;;;;;;;;;;5133161;27;20031;-70
2023/04/23 16:29:07;;;;;;;8.93;4.70;;;;;;;;;;5133651;27;20026;-71